CheckWX is a tool to help pilots better visualize weather data.  It is not intended as a substitute for an official pre-flight weather briefing.

16:20:18 UTC

KROG METAR
Rogers Executive - Carter Field Airport
Rogers, Arkansas, USA
Current

22 mins ago

KROG 171558Z 20006KT 10SM CLR 14/07 A3008 RMK AO2 SLP184 T01440072
Observed
Oct-17 @ 15:58 UTC
Wind
  • 200° at 6 KTS
Visibility
10 SM
Flight Rules
VFR
Cloud Levels
  • Clear skies
Temperature
14°C / 57°F
Dewpoint
C / 45°F
Humidity
63%
Altimeter
30.08" Hg
Pressure
1018.62 hPa
Previous

1 hour ago

KROG 171458Z 17005KT 10SM CLR 11/08 A3009 RMK AO2 SLP190 60000 T01060078 58004
Observed
Oct-17 @ 14:58 UTC
Wind
  • 170° at 5 KTS
Visibility
10 SM
Flight Rules
VFR
Cloud Levels
  • Clear skies
Temperature
11°C / 52°F
Dewpoint
C / 46°F
Humidity
82%
Altimeter
30.09" Hg
Pressure
1018.92 hPa
Previous

2 hours ago

KROG 171358Z 13004KT 10SM CLR 08/07 A3010 RMK AO2 RAB1259E28 SLP195 P0000 T00780067
Observed
Oct-17 @ 13:58 UTC
Wind
  • 130° at 4 KTS
Visibility
10 SM
Flight Rules
VFR
Cloud Levels
  • Clear skies
Temperature
C / 46°F
Dewpoint
C / 45°F
Humidity
93%
Altimeter
30.1" Hg
Pressure
1019.32 hPa
Current Rain
0.01"